Main page
METAR-TAF:

METAR-TAF

Airports :

Wiener Neustadt East Airport

Wiener Neustadt, Austria

latitude: 47-50-36N, longitude: 016-15-29E, elevation: 272 m

Current weather observation

The report was made 44 minutes ago, at 10:00 UTC
Wind 7 kt from the North/Northwest with gusts up to 21 kt
Temperature
Pressure

METAR: LOAN 231000Z 33007G21KT 25KM FEW030CU SCT130AC BKN300CI

Time: 12:44 (10:44 UTC)

Forecast

The report was made 2 hours and 44 minutes ago, at 08:00 UTC
Forecast valid from 23 at 09 UTC to 23 at 18 UTC
Wind 10 kt from the North
Visibility 10 km or more
Few clouds at a height of 2000 ft
Broken clouds at a height of 4000 ft
Becoming
from 23 at 09 UTC to 23 at 11 UTC
Wind 13 kt from the West/Northwest
Few clouds at a height of 4000 ft
Broken clouds at a height of 30000 ft
Temporary
from 23 at 11 UTC to 23 at 18 UTC
Wind 18 kt from the Northwest with gusts up to 28 kt

TAF: LOAN 230800Z 2309/2318 01010KT 9999 FEW020 BKN040 BECMG 2309/2311 29013KT FEW040 BKN300 TEMPO 2311/2318 31018G28KT

Weather observations and forecasts of more than 4000 airports (METAR and TAF reports).

The available stations are represented by yellow and red dots on the map.

Hover mouse over dot to see the name of the station.

Then click to see weather observations and forecasts.

To change the map : click on the green buttons with a black cross to zoom in, on the green button with a dash to zoom out, or on the green arrows for adjacent maps.


METAR-TAF: